createdAt,value
2019-02-27T00:00:15.420Z,6.73
2019-02-27T00:02:43.800Z,6.53
2019-02-27T00:05:12.280Z,7.10
2019-02-27T00:07:40.735Z,7.50
2019-02-27T00:10:09.292Z,7.70
2019-02-27T00:12:37.674Z,7.30
2019-02-27T00:15:07.606Z,6.77
2019-02-27T00:17:36.028Z,6.10
2019-02-27T00:20:05.986Z,6.63
2019-02-27T00:22:34.388Z,6.40
2019-02-27T00:25:03.473Z,6.10
2019-02-27T00:27:32.509Z,6.20
2019-02-27T00:30:04.599Z,6.60
2019-02-27T00:32:31.085Z,6.07
2019-02-27T00:34:59.508Z,6.73
2019-02-27T00:37:28.104Z,6.80
2019-02-27T00:39:56.495Z,6.10
2019-02-27T00:42:33.249Z,6.50
2019-02-27T00:44:55.068Z,6.23
2019-02-27T00:47:23.702Z,5.30
2019-02-27T00:49:52.050Z,6.23
2019-02-27T00:52:20.430Z,5.73
2019-02-27T00:54:48.865Z,5.50
2019-02-27T00:57:20.508Z,5.70
2019-02-27T00:59:47.405Z,5.60
2019-02-27T01:02:20.013Z,6.00
2019-02-27T01:04:45.968Z,5.03
2019-02-27T01:07:20.274Z,5.40
2019-02-27T01:09:45.703Z,5.30
2019-02-27T01:12:14.092Z,5.50
2019-02-27T01:14:42.761Z,5.63
2019-02-27T01:17:11.190Z,5.90
2019-02-27T01:19:42.859Z,6.00
2019-02-27T01:22:11.385Z,6.30
2019-02-27T01:24:39.796Z,5.60
2019-02-27T01:27:08.207Z,5.90
2019-02-27T01:29:36.591Z,5.20
2019-02-27T01:32:05.036Z,5.67
2019-02-27T01:34:33.480Z,5.47
2019-02-27T01:37:01.857Z,6.43
2019-02-27T01:39:30.240Z,6.43
2019-02-27T01:41:58.644Z,6.80
2019-02-27T01:44:27.032Z,6.90
2019-02-27T01:46:55.587Z,6.63
2019-02-27T01:49:23.931Z,6.67
2019-02-27T01:51:52.343Z,6.73
2019-02-27T01:54:20.783Z,6.47
2019-02-27T01:56:49.170Z,6.90
2019-02-27T01:59:17.834Z,7.30
2019-02-27T02:01:46.522Z,7.77
2019-02-27T02:04:14.914Z,7.03
2019-02-27T02:06:43.582Z,7.20
2019-02-27T02:09:35.261Z,7.57
2019-02-27T02:12:18.099Z,6.97
2019-02-27T02:14:49.520Z,6.70
2019-02-27T02:17:41.037Z,7.27
2019-02-27T02:20:36.934Z,7.20
2019-02-27T02:23:29.271Z,7.10
2019-02-27T02:26:15.862Z,6.57
2019-02-27T02:28:53.339Z,10.60
2019-02-27T02:31:42.674Z,8.50
2019-02-27T02:34:16.987Z,8.17
2019-02-27T02:36:54.243Z,7.00
2019-02-27T02:39:31.264Z,7.33
2019-02-27T02:42:08.519Z,7.40
2019-02-27T02:45:14.851Z,7.20
2019-02-27T02:47:48.926Z,7.27
2019-02-27T02:50:45.887Z,6.80
2019-02-27T02:53:42.250Z,7.90
2019-02-27T02:56:28.835Z,7.60
2019-02-27T02:59:33.357Z,7.20
2019-02-27T03:02:07.204Z,6.93
2019-02-27T03:04:47.963Z,7.37
2019-02-27T03:07:37.027Z,6.93
2019-02-27T03:10:11.228Z,7.20
2019-02-27T03:12:51.512Z,7.00
2019-02-27T03:15:43.958Z,6.80
2019-02-27T03:18:33.186Z,6.93
2019-02-27T03:21:19.416Z,7.53
2019-02-27T03:23:53.367Z,7.00
2019-02-27T03:26:39.927Z,6.70
2019-02-27T03:29:51.921Z,7.30
2019-02-27T03:32:19.054Z,6.60
2019-02-27T03:34:51.298Z,6.83
2019-02-27T03:37:38.368Z,6.87
2019-02-27T03:40:26.072Z,7.13
2019-02-27T03:43:14.333Z,6.93
2019-02-27T03:45:57.693Z,6.93
2019-02-27T03:48:34.895Z,7.40
2019-02-27T03:51:24.318Z,7.70
2019-02-27T03:54:12.631Z,7.67
2019-02-27T03:57:09.949Z,7.30
2019-02-27T04:00:01.172Z,7.03
2019-02-27T04:02:49.408Z,6.80
2019-02-27T04:05:29.659Z,6.23
2019-02-27T04:08:20.464Z,6.20
2019-02-27T04:10:48.866Z,7.13
2019-02-27T04:13:17.290Z,7.13
2019-02-27T04:15:45.659Z,6.93
2019-02-27T04:18:12.921Z,6.90
2019-02-27T04:20:41.312Z,6.27
2019-02-27T04:23:12.547Z,7.07
2019-02-27T04:25:39.875Z,6.90
2019-02-27T04:28:08.257Z,7.00
2019-02-27T04:30:36.659Z,6.83
2019-02-27T04:33:05.056Z,7.03
2019-02-27T04:35:34.317Z,6.60
2019-02-27T04:38:02.896Z,6.87
2019-02-27T04:40:31.260Z,6.60
2019-02-27T04:42:59.969Z,7.20
2019-02-27T04:45:28.407Z,7.40
2019-02-27T04:47:56.791Z,7.10
2019-02-27T04:50:25.197Z,6.97
2019-02-27T04:52:57.600Z,6.20
2019-02-27T04:55:23.695Z,6.37
2019-02-27T04:57:52.097Z,6.70
2019-02-27T05:00:20.559Z,6.63
2019-02-27T05:02:50.499Z,6.77
2019-02-27T05:05:19.052Z,7.90
2019-02-27T05:07:47.472Z,7.53
2019-02-27T05:10:15.856Z,6.63
2019-02-27T05:12:47.859Z,7.00
2019-02-27T05:15:14.712Z,6.60
2019-02-27T05:17:43.129Z,6.60
2019-02-27T05:20:12.576Z,7.17
2019-02-27T05:22:41.081Z,6.70
2019-02-27T05:25:12.151Z,6.10
2019-02-27T05:27:39.663Z,6.50
2019-02-27T05:30:12.227Z,6.73
2019-02-27T05:32:40.905Z,6.90
2019-02-27T05:35:09.390Z,8.67
2019-02-27T05:37:39.285Z,9.27
2019-02-27T05:40:09.683Z,7.57
2019-02-27T05:42:38.968Z,8.43
2019-02-27T05:45:10.785Z,8.70
2019-02-27T05:47:39.193Z,8.27
2019-02-27T05:50:10.312Z,9.10
2019-02-27T05:52:38.696Z,8.23
2019-02-27T05:55:07.655Z,7.93
2019-02-27T05:57:36.057Z,8.70
2019-02-27T06:00:07.702Z,7.70
2019-02-27T06:02:36.119Z,8.73
2019-02-27T06:05:05.727Z,8.30
2019-02-27T06:07:34.165Z,8.07
2019-02-27T06:10:02.615Z,7.77
2019-02-27T06:12:31.048Z,7.80
2019-02-27T06:14:59.449Z,7.50
2019-02-27T06:17:27.867Z,7.90
2019-02-27T06:19:56.579Z,8.20
2019-02-27T06:22:27.239Z,8.63
2019-02-27T06:24:55.114Z,8.67
2019-02-27T06:27:23.528Z,9.63
2019-02-27T06:29:51.948Z,8.63
2019-02-27T06:32:20.352Z,8.20
2019-02-27T06:34:48.783Z,7.20
2019-02-27T06:37:17.169Z,7.60
2019-02-27T06:39:45.613Z,8.37
2019-02-27T06:42:14.162Z,8.20
2019-02-27T06:44:42.484Z,8.47
2019-02-27T06:47:10.892Z,8.17
2019-02-27T06:49:39.283Z,9.03
2019-02-27T06:52:09.201Z,8.40
2019-02-27T06:54:37.905Z,8.53
2019-02-27T06:57:07.843Z,8.40
2019-02-27T06:59:36.383Z,8.17
2019-02-27T07:02:04.798Z,8.60
2019-02-27T07:04:33.189Z,8.50
2019-02-27T07:07:01.567Z,8.00
2019-02-27T07:09:29.988Z,8.17
2019-02-27T07:11:58.429Z,7.93
2019-02-27T07:14:26.824Z,8.60
2019-02-27T07:16:57.365Z,9.03
2019-02-27T07:19:25.320Z,9.07
2019-02-27T07:21:53.702Z,9.40
2019-02-27T07:24:22.111Z,9.63
2019-02-27T07:26:50.753Z,8.87
2019-02-27T07:29:21.974Z,8.67
2019-02-27T07:31:51.814Z,8.73
2019-02-27T07:34:19.533Z,8.23
2019-02-27T07:36:47.911Z,8.53
2019-02-27T07:39:16.320Z,8.30
2019-02-27T07:41:44.709Z,8.20
2019-02-27T07:44:13.108Z,9.73
2019-02-27T07:46:41.524Z,7.63
2019-02-27T07:49:09.939Z,8.23
2019-02-27T07:51:38.319Z,7.70
2019-02-27T07:54:06.720Z,7.80
2019-02-27T07:56:35.098Z,8.23
2019-02-27T07:59:03.590Z,9.03
2019-02-27T08:01:31.970Z,8.30
2019-02-27T08:04:00.363Z,8.73
2019-02-27T08:06:28.755Z,7.80
2019-02-27T08:08:57.838Z,8.70
2019-02-27T08:11:26.536Z,9.00
2019-02-27T08:13:54.953Z,9.33
2019-02-27T08:16:23.344Z,8.43
2019-02-27T08:18:52.153Z,8.20
2019-02-27T08:21:21.039Z,8.80
2019-02-27T08:23:50.916Z,8.93
2019-02-27T08:26:19.322Z,8.33
2019-02-27T08:28:47.696Z,9.23
2019-02-27T08:31:16.082Z,8.50
2019-02-27T08:33:44.480Z,9.23
2019-02-27T08:36:12.861Z,8.27
2019-02-27T08:38:41.253Z,11.20
2019-02-27T08:41:09.655Z,9.07
2019-02-27T08:43:38.059Z,9.10
2019-02-27T08:46:06.442Z,9.03
2019-02-27T08:48:34.893Z,9.43
2019-02-27T08:51:08.401Z,9.50
2019-02-27T08:53:34.549Z,9.20
2019-02-27T08:56:02.992Z,9.83
2019-02-27T08:58:33.004Z,10.23
2019-02-27T09:01:01.915Z,9.73
2019-02-27T09:03:30.320Z,9.20
2019-02-27T09:05:58.717Z,9.53
2019-02-27T09:08:27.104Z,10.07
2019-02-27T09:10:55.517Z,10.87
2019-02-27T09:13:23.949Z,10.17
2019-02-27T09:15:52.324Z,11.47
2019-02-27T09:18:22.823Z,9.43
2019-02-27T09:20:53.274Z,10.30
2019-02-27T09:23:21.067Z,9.90
2019-02-27T09:25:57.008Z,10.83
2019-02-27T09:28:19.558Z,10.20
2019-02-27T09:30:47.947Z,17.33
2019-02-27T09:33:19.668Z,11.47
2019-02-27T09:35:46.454Z,10.43
2019-02-27T09:38:14.905Z,9.77
2019-02-27T09:40:43.306Z,10.30
2019-02-27T09:43:11.821Z,10.27
2019-02-27T09:45:40.149Z,9.80
2019-02-27T09:48:08.539Z,9.60
2019-02-27T09:50:39.130Z,9.87
2019-02-27T09:53:07.607Z,9.63
2019-02-27T09:55:36.046Z,9.53
2019-02-27T09:58:09.883Z,10.43
2019-02-27T10:00:39.593Z,9.27
2019-02-27T10:03:08.113Z,9.63
2019-02-27T10:05:37.498Z,9.73
2019-02-27T10:08:07.593Z,9.90
2019-02-27T10:10:36.294Z,9.40
2019-02-27T10:13:04.699Z,19.40
2019-02-27T10:15:34.489Z,9.20
2019-02-27T10:18:03.071Z,9.63
2019-02-27T10:20:31.587Z,9.10
2019-02-27T10:23:00.000Z,9.47
2019-02-27T10:25:28.410Z,8.90
2019-02-27T10:27:56.790Z,9.33
2019-02-27T10:30:25.261Z,10.50
2019-02-27T10:32:53.675Z,9.73
2019-02-27T10:35:23.001Z,10.20
2019-02-27T10:37:54.231Z,8.70
2019-02-27T10:40:27.496Z,9.57
2019-02-27T10:42:55.875Z,9.90
2019-02-27T10:45:24.322Z,9.20
2019-02-27T10:47:52.800Z,8.67
2019-02-27T10:50:21.275Z,9.70
2019-02-27T10:52:50.178Z,8.73
2019-02-27T10:55:19.694Z,8.57
2019-02-27T10:57:48.131Z,8.60
2019-02-27T11:00:26.711Z,9.00
2019-02-27T11:02:55.096Z,8.87
2019-02-27T11:05:24.557Z,8.83
2019-02-27T11:07:53.738Z,9.90
2019-02-27T11:10:22.315Z,8.83
2019-02-27T11:12:50.715Z,8.63
2019-02-27T11:15:22.811Z,9.13
2019-02-27T11:17:51.344Z,9.60
2019-02-27T11:20:21.182Z,8.67
2019-02-27T11:22:49.914Z,8.50
2019-02-27T11:25:22.649Z,8.70
2019-02-27T11:27:50.946Z,8.37
2019-02-27T11:30:24.669Z,8.40
2019-02-27T11:32:56.858Z,7.67
2019-02-27T11:35:25.179Z,7.53
2019-02-27T11:37:53.440Z,7.90
2019-02-27T11:40:26.087Z,7.70
2019-02-27T11:42:54.539Z,7.60
2019-02-27T11:45:24.626Z,7.50
2019-02-27T11:47:53.280Z,7.40
2019-02-27T11:50:21.799Z,9.20
2019-02-27T11:52:50.961Z,8.50
2019-02-27T11:55:20.781Z,8.63
2019-02-27T11:57:49.322Z,9.37
2019-02-27T12:00:29.402Z,8.57
2019-02-27T12:02:58.145Z,8.53
2019-02-27T12:05:32.561Z,8.80
2019-02-27T12:07:57.940Z,8.47
2019-02-27T12:10:32.992Z,8.67
2019-02-27T12:13:01.779Z,8.50
2019-02-27T12:15:30.642Z,9.03
2019-02-27T12:18:00.455Z,7.93
2019-02-27T12:20:29.358Z,7.37
2019-02-27T12:22:57.750Z,8.23
2019-02-27T12:25:28.091Z,10.03
2019-02-27T12:27:56.891Z,7.13
2019-02-27T12:30:27.007Z,6.30
2019-02-27T12:32:56.673Z,6.30
2019-02-27T12:35:27.782Z,6.60
2019-02-27T12:37:56.334Z,5.97
2019-02-27T12:40:25.339Z,6.10
2019-02-27T12:42:53.949Z,9.70
2019-02-27T12:45:29.510Z,8.77
2019-02-27T12:47:58.150Z,10.50
2019-02-27T12:50:31.172Z,6.60
2019-02-27T12:52:58.073Z,5.70
2019-02-27T12:55:26.583Z,7.17
2019-02-27T12:57:55.036Z,6.50
2019-02-27T13:00:30.648Z,5.60
2019-02-27T13:02:59.406Z,5.57
2019-02-27T13:05:28.376Z,5.13
2019-02-27T13:07:56.814Z,5.40
2019-02-27T13:10:33.046Z,9.43
2019-02-27T13:12:58.693Z,6.80
2019-02-27T13:15:31.317Z,5.80
2019-02-27T13:17:59.694Z,5.97
2019-02-27T13:20:35.348Z,5.90
2019-02-27T13:23:05.074Z,5.60
2019-02-27T13:25:33.852Z,5.37
2019-02-27T13:28:02.318Z,5.60
2019-02-27T13:30:30.750Z,5.43
2019-02-27T13:33:01.188Z,5.03
2019-02-27T13:35:30.225Z,5.37
2019-02-27T13:37:58.622Z,5.23
2019-02-27T13:40:28.252Z,5.20
2019-02-27T13:42:56.721Z,5.30
2019-02-27T13:45:26.740Z,4.97
2019-02-27T13:47:55.300Z,4.90
2019-02-27T13:50:26.697Z,5.10
2019-02-27T13:52:53.972Z,4.63
2019-02-27T13:55:23.413Z,4.73
2019-02-27T13:57:51.875Z,4.50
2019-02-27T14:00:26.076Z,4.87
2019-02-27T14:02:54.518Z,4.80
2019-02-27T14:05:22.971Z,4.70
2019-02-27T14:07:57.081Z,4.60
2019-02-27T14:10:23.539Z,4.60
2019-02-27T14:12:52.469Z,4.37
2019-02-27T14:15:26.882Z,4.40
2019-02-27T14:17:52.611Z,4.10
2019-02-27T14:20:22.342Z,4.63
2019-02-27T14:22:50.924Z,4.97
2019-02-27T14:25:28.461Z,4.30
2019-02-27T14:27:55.417Z,4.17
2019-02-27T14:30:26.614Z,4.60
2019-02-27T14:32:55.013Z,4.10
2019-02-27T14:35:23.402Z,4.10
2019-02-27T14:37:51.793Z,4.13
2019-02-27T14:40:21.423Z,4.20
2019-02-27T14:42:53.806Z,3.23
2019-02-27T14:45:22.316Z,3.53
2019-02-27T14:47:50.842Z,3.60
2019-02-27T14:50:20.798Z,3.47
2019-02-27T14:52:50.095Z,3.13
2019-02-27T14:55:19.147Z,3.30
2019-02-27T14:57:51.065Z,3.97
2019-02-27T15:00:32.793Z,3.40
2019-02-27T15:03:01.271Z,3.57
2019-02-27T15:05:29.707Z,3.47
2019-02-27T15:07:58.089Z,3.20
2019-02-27T15:10:26.551Z,3.40
2019-02-27T15:12:55.614Z,3.40
2019-02-27T15:15:28.968Z,4.23
2019-02-27T15:17:57.423Z,3.30
2019-02-27T15:20:29.981Z,3.33
2019-02-27T15:22:58.452Z,3.13
2019-02-27T15:25:27.711Z,3.77
2019-02-27T15:27:58.821Z,3.40
2019-02-27T15:30:31.452Z,3.37
2019-02-27T15:33:04.003Z,3.30
2019-02-27T15:35:29.964Z,3.13
2019-02-27T15:37:58.510Z,3.50
2019-02-27T15:40:30.112Z,3.50
2019-02-27T15:42:59.097Z,4.73
2019-02-27T15:45:28.412Z,3.33
2019-02-27T15:47:57.249Z,3.50
2019-02-27T15:50:31.013Z,3.63
2019-02-27T15:52:59.424Z,3.23
2019-02-27T15:55:32.999Z,3.57
2019-02-27T15:57:58.058Z,3.33
2019-02-27T16:00:27.898Z,3.03
2019-02-27T16:02:56.320Z,3.20
2019-02-27T16:05:30.202Z,3.20
2019-02-27T16:07:54.909Z,3.20
2019-02-27T16:10:24.773Z,2.83
2019-02-27T16:12:53.143Z,2.90
2019-02-27T16:15:22.672Z,3.57
2019-02-27T16:17:51.303Z,3.13
2019-02-27T16:20:27.923Z,2.93
2019-02-27T16:22:56.494Z,2.57
2019-02-27T16:25:26.314Z,3.20
2019-02-27T16:27:54.713Z,3.10
2019-02-27T16:30:31.122Z,2.83
2019-02-27T16:32:57.908Z,2.77
2019-02-27T16:35:26.568Z,2.70
2019-02-27T16:37:57.507Z,2.80
2019-02-27T16:40:27.286Z,2.97
2019-02-27T16:42:55.648Z,2.90
2019-02-27T16:45:38.054Z,2.63
2019-02-27T16:48:06.475Z,2.90
2019-02-27T16:50:34.831Z,2.90
2019-02-27T16:53:03.215Z,4.80
2019-02-27T16:55:35.606Z,4.77
2019-02-27T16:58:02.020Z,6.33
2019-02-27T17:00:35.671Z,9.33
2019-02-27T17:03:04.155Z,5.63
2019-02-27T17:05:32.543Z,4.40
2019-02-27T17:08:02.746Z,4.23
2019-02-27T17:10:33.583Z,4.17
2019-02-27T17:13:01.966Z,3.90
2019-02-27T17:15:34.638Z,4.07
2019-02-27T17:18:00.577Z,3.87
2019-02-27T17:20:29.506Z,3.80
2019-02-27T17:22:57.915Z,2.90
2019-02-27T17:25:30.077Z,4.00
2019-02-27T17:27:56.456Z,4.70
2019-02-27T17:30:36.662Z,3.83
2019-02-27T17:33:04.118Z,3.70
2019-02-27T17:35:32.268Z,3.53
2019-02-27T17:38:00.676Z,3.33
2019-02-27T17:40:29.424Z,4.13
2019-02-27T17:42:57.920Z,3.80
2019-02-27T17:45:27.873Z,3.83
2019-02-27T17:47:57.342Z,4.60
2019-02-27T17:50:30.836Z,5.03
2019-02-27T17:52:55.938Z,5.33
2019-02-27T17:55:24.389Z,5.63
2019-02-27T17:57:58.056Z,5.40
2019-02-27T18:00:28.390Z,5.63
2019-02-27T18:02:56.482Z,4.67
2019-02-27T18:05:25.344Z,5.53
2019-02-27T18:07:54.598Z,5.97
2019-02-27T18:10:23.008Z,5.80
2019-02-27T18:12:51.753Z,6.43
2019-02-27T18:15:21.728Z,6.90
2019-02-27T18:17:50.458Z,5.93
2019-02-27T18:20:24.545Z,6.67
2019-02-27T18:22:50.973Z,8.93
2019-02-27T18:25:19.495Z,7.87
2019-02-27T18:27:48.375Z,8.53
2019-02-27T18:30:22.237Z,8.63
2019-02-27T18:32:50.726Z,8.70
2019-02-27T18:35:20.096Z,8.63
2019-02-27T18:37:53.235Z,9.43
2019-02-27T18:40:19.824Z,10.53
2019-02-27T18:42:48.277Z,9.20
2019-02-27T18:45:30.254Z,9.63
2019-02-27T18:47:59.046Z,9.70
2019-02-27T18:50:28.682Z,9.67
2019-02-27T18:52:57.074Z,9.40
2019-02-27T18:55:29.531Z,10.53
2019-02-27T18:57:55.636Z,10.77
2019-02-27T19:00:26.459Z,9.57
2019-02-27T19:03:00.713Z,9.87
2019-02-27T19:05:29.245Z,10.27
2019-02-27T19:07:57.801Z,10.10
2019-02-27T19:10:26.335Z,11.23
2019-02-27T19:12:54.909Z,12.00
2019-02-27T19:15:25.305Z,12.40
2019-02-27T19:17:54.030Z,12.33
2019-02-27T19:20:34.219Z,11.20
2019-02-27T19:23:02.631Z,11.33
2019-02-27T19:25:34.012Z,11.87
2019-02-27T19:28:01.264Z,11.97
2019-02-27T19:30:29.647Z,11.43
2019-02-27T19:33:01.737Z,11.33
2019-02-27T19:35:28.377Z,11.70
2019-02-27T19:37:56.829Z,12.07
2019-02-27T19:40:29.831Z,9.83
2019-02-27T19:43:01.188Z,11.63
2019-02-27T19:45:29.812Z,11.63
2019-02-27T19:47:58.466Z,10.30
2019-02-27T19:50:27.590Z,11.43
2019-02-27T19:52:56.071Z,10.80
2019-02-27T19:55:27.427Z,12.00
2019-02-27T19:57:54.756Z,12.57
2019-02-27T20:00:34.194Z,12.87
2019-02-27T20:03:01.560Z,12.73
2019-02-27T20:05:30.151Z,13.43
2019-02-27T20:07:58.900Z,12.83
2019-02-27T20:10:30.184Z,11.27
2019-02-27T20:12:57.523Z,11.63
2019-02-27T20:15:26.769Z,11.77
2019-02-27T20:17:55.219Z,12.23
2019-02-27T20:20:24.364Z,11.90
2019-02-27T20:22:54.855Z,12.00
2019-02-27T20:25:24.991Z,12.20
2019-02-27T20:27:53.447Z,10.63
2019-02-27T20:30:24.886Z,12.07
2019-02-27T20:32:53.413Z,12.07
2019-02-27T20:35:21.870Z,11.70
2019-02-27T20:37:50.261Z,11.67
2019-02-27T20:40:20.671Z,11.80
2019-02-27T20:42:50.461Z,11.73
2019-02-27T20:45:20.815Z,11.20
2019-02-27T20:47:49.410Z,10.83
2019-02-27T20:50:35.270Z,11.80
2019-02-27T20:53:03.810Z,11.30
2019-02-27T20:55:32.149Z,11.30
2019-02-27T20:58:00.541Z,11.10
2019-02-27T21:00:29.968Z,10.90
2019-02-27T21:03:00.670Z,11.83
2019-02-27T21:05:28.955Z,11.87
2019-02-27T21:08:00.787Z,11.77
2019-02-27T21:10:29.259Z,12.10
2019-02-27T21:12:58.567Z,11.23
2019-02-27T21:15:32.604Z,12.77
2019-02-27T21:18:00.616Z,12.47
2019-02-27T21:20:29.068Z,12.03
2019-02-27T21:22:59.924Z,12.00
2019-02-27T21:25:27.752Z,12.00
2019-02-27T21:27:56.161Z,12.57
2019-02-27T21:30:25.610Z,13.07
2019-02-27T21:32:54.003Z,12.57
2019-02-27T21:35:23.208Z,12.17
2019-02-27T21:37:51.591Z,12.03
2019-02-27T21:40:20.246Z,12.67
2019-02-27T21:42:50.806Z,12.23
2019-02-27T21:45:22.810Z,12.73
2019-02-27T21:47:52.662Z,12.60
2019-02-27T21:50:22.774Z,13.27
2019-02-27T21:52:54.365Z,12.50
2019-02-27T21:55:21.301Z,13.07
2019-02-27T21:57:49.694Z,13.73
2019-02-27T22:00:24.219Z,12.87
2019-02-27T22:02:54.147Z,13.70
2019-02-27T22:05:24.597Z,14.33
2019-02-27T22:07:53.121Z,13.67
2019-02-27T22:10:21.656Z,13.57
2019-02-27T22:12:50.307Z,13.20
2019-02-27T22:15:24.332Z,14.23
2019-02-27T22:17:52.814Z,13.67
2019-02-27T22:20:21.199Z,12.47
2019-02-27T22:22:51.553Z,13.30
2019-02-27T22:25:20.012Z,12.23
2019-02-27T22:27:48.530Z,14.30
2019-02-27T22:30:18.568Z,12.67
2019-02-27T22:32:48.191Z,12.90
2019-02-27T22:35:17.223Z,12.60
2019-02-27T22:37:51.056Z,13.30
2019-02-27T22:40:19.043Z,12.63
2019-02-27T22:42:48.643Z,13.50
2019-02-27T22:45:18.794Z,13.80
2019-02-27T22:47:47.271Z,13.93
2019-02-27T22:50:17.099Z,13.37
2019-02-27T22:52:45.489Z,13.90
2019-02-27T22:55:14.012Z,14.30
2019-02-27T22:57:42.394Z,13.57
2019-02-27T23:00:56.566Z,13.53
2019-02-27T23:03:28.607Z,13.53
2019-02-27T23:05:57.070Z,13.93
2019-02-27T23:08:25.522Z,13.27
2019-02-27T23:10:53.910Z,13.90
2019-02-27T23:13:22.406Z,14.73
2019-02-27T23:15:50.936Z,14.90
2019-02-27T23:18:19.340Z,15.03
2019-02-27T23:20:47.757Z,14.60
2019-02-27T23:23:16.166Z,16.03
2019-02-27T23:25:46.524Z,15.83
2019-02-27T23:28:14.756Z,16.73
2019-02-27T23:30:43.145Z,17.33
2019-02-27T23:33:11.528Z,16.63
2019-02-27T23:35:39.921Z,16.70
2019-02-27T23:38:08.420Z,16.57
2019-02-27T23:40:36.810Z,17.17
2019-02-27T23:43:05.205Z,17.97
2019-02-27T23:45:33.691Z,18.13
2019-02-27T23:48:02.957Z,18.63
2019-02-27T23:50:31.383Z,18.60
2019-02-27T23:52:59.774Z,18.07
2019-02-27T23:55:28.247Z,17.50
2019-02-27T23:57:57.772Z,17.43
